Terminal Aerodrome Forecast
Issued by NWS Charleston, WV

Current Version | Previous Version | Graphics & Text | Print | Product List | Glossary On
Versions: 1 2 3 4 5 6 7 8 9 10 11 12 13 14 15 16 17 18 19 20 21 22 23 24 25 26 27 28 29
000
FTUS41 KRLX 310500 RRA
TAFBKW
TAF
KBKW 310543Z 3106/0106 17008KT P6SM OVC150
     FM311200 19007KT 6SM -SHRA OVC060
     FM311600 23007KT P6SM VCSH BKN050
     FM312000 24006KT 6SM -SHRA VCTS BKN050CB PROB30 3120/3122 2SM
      -TSRA OVC030CB
     FM010000 00000KT 6SM -SHRA OVC060
     FM010300 23007KT 4SM BR OVC025=

USA.gov is the U.S. government's official web portal to all federal, state and local government web resources and services.